sensor_id;sensor_type;location;lat;lon;timestamp;pressure;altitude;pressure_sealevel;temperature;humidity
7760;BME280;3924;48.830;9.262;2023-01-25T00:02:26;100262.50;;;2.18;88.57
7760;BME280;3924;48.830;9.262;2023-01-25T00:04:53;100256.94;;;2.19;88.68
7760;BME280;3924;48.830;9.262;2023-01-25T00:07:19;100254.72;;;2.23;88.66
7760;BME280;3924;48.830;9.262;2023-01-25T00:09:45;100249.56;;;2.22;88.57
7760;BME280;3924;48.830;9.262;2023-01-25T00:12:12;100246.06;;;2.21;88.36
7760;BME280;3924;48.830;9.262;2023-01-25T00:14:38;100245.25;;;2.21;88.54
7760;BME280;3924;48.830;9.262;2023-01-25T00:17:05;100242.34;;;2.22;88.54
7760;BME280;3924;48.830;9.262;2023-01-25T00:19:31;100239.06;;;2.20;88.66
7760;BME280;3924;48.830;9.262;2023-01-25T00:21:58;100236.19;;;2.22;88.54
7760;BME280;3924;48.830;9.262;2023-01-25T00:24:24;100237.84;;;2.23;88.67
7760;BME280;3924;48.830;9.262;2023-01-25T00:26:51;100235.38;;;2.21;88.66
7760;BME280;3924;48.830;9.262;2023-01-25T00:29:18;100234.09;;;2.17;88.57
7760;BME280;3924;48.830;9.262;2023-01-25T00:36:55;100247.47;;;2.17;88.70
7760;BME280;3924;48.830;9.262;2023-01-25T00:39:25;100245.63;;;2.17;88.67
7760;BME280;3924;48.830;9.262;2023-01-25T00:41:52;100238.41;;;2.18;88.55
7760;BME280;3924;48.830;9.262;2023-01-25T00:44:18;100244.59;;;2.18;88.53
7760;BME280;3924;48.830;9.262;2023-01-25T00:46:45;100239.06;;;2.20;88.79
7760;BME280;3924;48.830;9.262;2023-01-25T00:49:20;100233.88;;;2.18;88.60
7760;BME280;3924;48.830;9.262;2023-01-25T00:51:48;100228.75;;;2.17;88.64
7760;BME280;3924;48.830;9.262;2023-01-25T00:54:14;100219.69;;;2.18;88.67
7760;BME280;3924;48.830;9.262;2023-01-25T00:56:41;100226.69;;;2.19;88.72
7760;BME280;3924;48.830;9.262;2023-01-25T00:59:08;100219.69;;;2.18;88.79
7760;BME280;3924;48.830;9.262;2023-01-25T01:01:35;100220.72;;;2.17;88.79
7760;BME280;3924;48.830;9.262;2023-01-25T01:04:01;100216.41;;;2.16;88.70
7760;BME280;3924;48.830;9.262;2023-01-25T01:06:31;100219.06;;;2.16;88.53
7760;BME280;3924;48.830;9.262;2023-01-25T01:08:57;100220.72;;;2.17;88.80
7760;BME280;3924;48.830;9.262;2023-01-25T01:11:24;100223.38;;;2.17;88.71
7760;BME280;3924;48.830;9.262;2023-01-25T01:13:50;100213.72;;;2.16;88.80
7760;BME280;3924;48.830;9.262;2023-01-25T01:16:17;100217.22;;;2.16;88.68
7760;BME280;3924;48.830;9.262;2023-01-25T01:18:44;100218.03;;;2.17;88.67
7760;BME280;3924;48.830;9.262;2023-01-25T01:21:12;100216.41;;;2.16;88.74
7760;BME280;3924;48.830;9.262;2023-01-25T01:23:39;100216.41;;;2.16;88.94
7760;BME280;3924;48.830;9.262;2023-01-25T01:26:07;100210.00;;;2.17;88.65
7760;BME280;3924;48.830;9.262;2023-01-25T01:28:35;100218.03;;;2.17;88.90
7760;BME280;3924;48.830;9.262;2023-01-25T01:31:17;100219.31;;;2.21;88.85
7760;BME280;3924;48.830;9.262;2023-01-25T01:33:48;100227.13;;;2.23;88.90
7760;BME280;3924;48.830;9.262;2023-01-25T01:36:16;100222.59;;;2.23;88.76
7760;BME280;3924;48.830;9.262;2023-01-25T01:38:44;100219.09;;;2.23;88.72
7760;BME280;3924;48.830;9.262;2023-01-25T01:41:11;100215.59;;;2.22;88.82
7760;BME280;3924;48.830;9.262;2023-01-25T01:43:38;100216.19;;;2.17;88.75
7760;BME280;3924;48.830;9.262;2023-01-25T01:48:48;100211.03;;;2.16;88.74
7760;BME280;3924;48.830;9.262;2023-01-25T01:51:39;100216.41;;;2.16;88.77
7760;BME280;3924;48.830;9.262;2023-01-25T01:54:32;100220.72;;;2.17;88.83
7760;BME280;3924;48.830;9.262;2023-01-25T01:57:09;100226.06;;;2.17;88.80
7760;BME280;3924;48.830;9.262;2023-01-25T01:59:42;100219.06;;;2.16;88.73
7760;BME280;3924;48.830;9.262;2023-01-25T02:02:09;100226.88;;;2.17;88.96
7760;BME280;3924;48.830;9.262;2023-01-25T02:04:36;100223.38;;;2.17;88.78
7760;BME280;3924;48.830;9.262;2023-01-25T02:07:08;100217.41;;;2.15;88.72
7760;BME280;3924;48.830;9.262;2023-01-25T02:09:39;100223.38;;;2.17;88.96
7760;BME280;3924;48.830;9.262;2023-01-25T02:12:06;100218.03;;;2.17;88.98
7760;BME280;3924;48.830;9.262;2023-01-25T02:14:36;100211.03;;;2.16;88.90
7760;BME280;3924;48.830;9.262;2023-01-25T02:17:03;100212.91;;;2.15;88.89
7760;BME280;3924;48.830;9.262;2023-01-25T02:19:53;100218.88;;;2.17;88.81
7760;BME280;3924;48.830;9.262;2023-01-25T02:22:29;100204.03;;;2.15;88.78
7760;BME280;3924;48.830;9.262;2023-01-25T02:25:17;100204.03;;;2.15;88.79
7760;BME280;3924;48.830;9.262;2023-01-25T02:30:35;100199.06;;;2.12;88.74
7760;BME280;3924;48.830;9.262;2023-01-25T02:33:01;100199.06;;;2.12;88.85
7760;BME280;3924;48.830;9.262;2023-01-25T02:35:41;100205.25;;;2.12;89.05
7760;BME280;3924;48.830;9.262;2023-01-25T02:38:11;100199.28;;;2.10;88.83
7760;BME280;3924;48.830;9.262;2023-01-25T02:40:58;100200.75;;;2.13;89.09
7760;BME280;3924;48.830;9.262;2023-01-25T02:43:28;100191.69;;;2.14;89.05
7760;BME280;3924;48.830;9.262;2023-01-25T02:46:06;100188.38;;;2.12;89.02
7760;BME280;3924;48.830;9.262;2023-01-25T02:48:36;100192.91;;;2.11;88.90
7760;BME280;3924;48.830;9.262;2023-01-25T02:51:06;100195.56;;;2.11;88.74
7760;BME280;3924;48.830;9.262;2023-01-25T02:53:33;100190.44;;;2.10;88.97
7760;BME280;3924;48.830;9.262;2023-01-25T02:55:59;100193.09;;;2.10;88.94
7760;BME280;3924;48.830;9.262;2023-01-25T02:58:26;100190.84;;;2.07;89.23
7760;BME280;3924;48.830;9.262;2023-01-25T03:00:55;100187.13;;;2.08;88.97
7760;BME280;3924;48.830;9.262;2023-01-25T03:03:22;100173.75;;;2.08;89.24
7760;BME280;3924;48.830;9.262;2023-01-25T03:05:49;100169.44;;;2.07;89.22
7760;BME280;3924;48.830;9.262;2023-01-25T03:08:15;100168.41;;;2.08;89.20
7760;BME280;3924;48.830;9.262;2023-01-25T03:10:42;100175.41;;;2.09;89.31
7760;BME280;3924;48.830;9.262;2023-01-25T03:13:09;100168.19;;;2.09;89.23
7760;BME280;3924;48.830;9.262;2023-01-25T03:15:36;100164.72;;;2.09;89.05
7760;BME280;3924;48.830;9.262;2023-01-25T03:18:03;100158.75;;;2.07;89.10
7760;BME280;3924;48.830;9.262;2023-01-25T03:20:29;100162.41;;;2.06;89.02
7760;BME280;3924;48.830;9.262;2023-01-25T03:22:56;100156.88;;;2.07;89.07
7760;BME280;3924;48.830;9.262;2023-01-25T03:25:22;100160.38;;;2.08;89.03
7760;BME280;3924;48.830;9.262;2023-01-25T03:27:49;100156.69;;;2.09;89.19
7760;BME280;3924;48.830;9.262;2023-01-25T03:30:16;100153.19;;;2.08;89.37
7760;BME280;3924;48.830;9.262;2023-01-25T03:32:43;100153.19;;;2.08;89.19
7760;BME280;3924;48.830;9.262;2023-01-25T03:35:09;100156.28;;;2.12;88.88
7760;BME280;3924;48.830;9.262;2023-01-25T03:37:36;100154.63;;;2.11;89.01
7760;BME280;3924;48.830;9.262;2023-01-25T03:40:03;100157.94;;;2.13;89.12
7760;BME280;3924;48.830;9.262;2023-01-25T03:42:31;100156.47;;;2.10;89.13
7760;BME280;3924;48.830;9.262;2023-01-25T03:44:57;100154.41;;;2.12;88.99
7760;BME280;3924;48.830;9.262;2023-01-25T03:47:23;100155.44;;;2.11;89.32
7760;BME280;3924;48.830;9.262;2023-01-25T03:49:50;100148.44;;;2.10;89.37
7760;BME280;3924;48.830;9.262;2023-01-25T03:52:17;100146.59;;;2.11;89.29
7760;BME280;3924;48.830;9.262;2023-01-25T03:54:43;100143.94;;;2.11;89.23
7760;BME280;3924;48.830;9.262;2023-01-25T03:57:10;100135.09;;;2.10;89.11
7760;BME280;3924;48.830;9.262;2023-01-25T03:59:38;100144.94;;;2.10;89.34
7760;BME280;3924;48.830;9.262;2023-01-25T04:02:04;100150.94;;;2.12;89.28
7760;BME280;3924;48.830;9.262;2023-01-25T04:04:31;100148.44;;;2.10;89.14
7760;BME280;3924;48.830;9.262;2023-01-25T04:06:57;100148.25;;;2.12;89.17
7760;BME280;3924;48.830;9.262;2023-01-25T04:09:24;100145.56;;;2.12;89.27
7760;BME280;3924;48.830;9.262;2023-01-25T04:11:50;100141.91;;;2.13;89.27
7760;BME280;3924;48.830;9.262;2023-01-25T04:14:17;100144.38;;;2.14;89.21
7760;BME280;3924;48.830;9.262;2023-01-25T04:16:57;100139.84;;;2.15;89.36
7760;BME280;3924;48.830;9.262;2023-01-25T04:19:23;100147.88;;;2.15;89.29
7760;BME280;3924;48.830;9.262;2023-01-25T04:21:50;100147.88;;;2.15;89.37
7760;BME280;3924;48.830;9.262;2023-01-25T04:24:16;100145.19;;;2.15;89.23
7760;BME280;3924;48.830;9.262;2023-01-25T04:26:42;100145.19;;;2.15;89.23
7760;BME280;3924;48.830;9.262;2023-01-25T04:29:09;100138.81;;;2.16;89.21
7760;BME280;3924;48.830;9.262;2023-01-25T04:31:35;100130.78;;;2.16;89.27
7760;BME280;3924;48.830;9.262;2023-01-25T04:34:02;100130.78;;;2.16;89.11
7760;BME280;3924;48.830;9.262;2023-01-25T04:36:28;100129.16;;;2.15;89.15
7760;BME280;3924;48.830;9.262;2023-01-25T04:38:55;100132.63;;;2.15;89.19
7760;BME280;3924;48.830;9.262;2023-01-25T04:41:21;100134.50;;;2.15;89.25
7760;BME280;3924;48.830;9.262;2023-01-25T04:43:52;100126.69;;;2.13;89.20
7760;BME280;3924;48.830;9.262;2023-01-25T04:46:18;100132.63;;;2.15;89.19
7760;BME280;3924;48.830;9.262;2023-01-25T04:48:44;100122.16;;;2.14;89.18
7760;BME280;3924;48.830;9.262;2023-01-25T04:51:11;100123.19;;;2.13;89.09
7760;BME280;3924;48.830;9.262;2023-01-25T04:53:39;100125.84;;;2.13;89.25
7760;BME280;3924;48.830;9.262;2023-01-25T04:56:06;100134.50;;;2.15;89.17
7760;BME280;3924;48.830;9.262;2023-01-25T04:58:32;100129.16;;;2.15;89.19
7760;BME280;3924;48.830;9.262;2023-01-25T05:01:03;100124.81;;;2.14;89.12
7760;BME280;3924;48.830;9.262;2023-01-25T05:03:29;100124.81;;;2.14;89.10
7760;BME280;3924;48.830;9.262;2023-01-25T05:05:56;100132.44;;;2.17;89.22
7760;BME280;3924;48.830;9.262;2023-01-25T05:08:22;100129.75;;;2.17;89.03
7760;BME280;3924;48.830;9.262;2023-01-25T05:10:49;100123.78;;;2.15;89.23
7760;BME280;3924;48.830;9.262;2023-01-25T05:13:15;100123.78;;;2.15;89.19
7760;BME280;3924;48.830;9.262;2023-01-25T05:15:42;100121.31;;;2.13;89.35
7760;BME280;3924;48.830;9.262;2023-01-25T05:18:08;100129.34;;;2.13;89.24
7760;BME280;3924;48.830;9.262;2023-01-25T05:20:35;100126.47;;;2.15;89.33
7760;BME280;3924;48.830;9.262;2023-01-25T05:23:01;100111.84;;;2.11;89.19
7760;BME280;3924;48.830;9.262;2023-01-25T05:25:28;100108.34;;;2.10;89.03
7760;BME280;3924;48.830;9.262;2023-01-25T05:28:12;100113.47;;;2.12;89.21
7760;BME280;3924;48.830;9.262;2023-01-25T05:30:39;100111.84;;;2.11;88.93
7760;BME280;3924;48.830;9.262;2023-01-25T05:33:05;100111.84;;;2.11;89.30
7760;BME280;3924;48.830;9.262;2023-01-25T05:35:32;100115.94;;;2.07;89.01
7760;BME280;3924;48.830;9.262;2023-01-25T05:37:58;100113.28;;;2.07;89.16
7760;BME280;3924;48.830;9.262;2023-01-25T05:40:25;100110.59;;;2.07;89.08
7760;BME280;3924;48.830;9.262;2023-01-25T05:42:56;100107.72;;;2.08;89.23
7760;BME280;3924;48.830;9.262;2023-01-25T05:45:23;100113.88;;;2.09;89.28
7760;BME280;3924;48.830;9.262;2023-01-25T05:47:54;100114.72;;;2.09;89.06
7760;BME280;3924;48.830;9.262;2023-01-25T05:50:21;100107.09;;;2.06;89.08
7760;BME280;3924;48.830;9.262;2023-01-25T05:52:47;100112.25;;;2.08;89.05
7760;BME280;3924;48.830;9.262;2023-01-25T05:55:14;100104.44;;;2.06;89.20
7760;BME280;3924;48.830;9.262;2023-01-25T05:57:41;100104.22;;;2.08;89.24
7760;BME280;3924;48.830;9.262;2023-01-25T06:00:09;100099.91;;;2.07;89.09
7760;BME280;3924;48.830;9.262;2023-01-25T06:02:35;100101.75;;;2.06;89.02
7760;BME280;3924;48.830;9.262;2023-01-25T06:05:03;100099.25;;;2.05;88.99
7760;BME280;3924;48.830;9.262;2023-01-25T06:07:33;100101.31;;;2.03;89.12
7760;BME280;3924;48.830;9.262;2023-01-25T06:10:02;100098.44;;;2.04;89.28
7760;BME280;3924;48.830;9.262;2023-01-25T06:12:29;100107.28;;;2.05;89.25
7760;BME280;3924;48.830;9.262;2023-01-25T06:14:56;100095.75;;;2.04;89.17
7760;BME280;3924;48.830;9.262;2023-01-25T06:17:22;100089.19;;;2.07;89.20
7760;BME280;3924;48.830;9.262;2023-01-25T06:19:49;100089.19;;;2.07;89.01
7760;BME280;3924;48.830;9.262;2023-01-25T06:22:15;100091.88;;;2.07;89.07
7760;BME280;3924;48.830;9.262;2023-01-25T06:24:42;100089.19;;;2.07;89.04
7760;BME280;3924;48.830;9.262;2023-01-25T06:27:08;100093.72;;;2.06;89.19
7760;BME280;3924;48.830;9.262;2023-01-25T06:29:36;100088.38;;;2.06;89.09
7760;BME280;3924;48.830;9.262;2023-01-25T06:32:03;100094.53;;;2.07;89.20
7760;BME280;3924;48.830;9.262;2023-01-25T06:34:29;100095.38;;;2.07;89.11
7760;BME280;3924;48.830;9.262;2023-01-25T06:36:56;100091.06;;;2.06;89.02
7760;BME280;3924;48.830;9.262;2023-01-25T06:39:22;100087.53;;;2.06;88.94
7760;BME280;3924;48.830;9.262;2023-01-25T06:41:49;100096.41;;;2.06;89.18
7760;BME280;3924;48.830;9.262;2023-01-25T06:44:15;100079.69;;;2.04;88.97
7760;BME280;3924;48.830;9.262;2023-01-25T06:46:42;100096.56;;;2.05;89.13
7760;BME280;3924;48.830;9.262;2023-01-25T06:49:09;100081.34;;;2.05;89.10
7760;BME280;3924;48.830;9.262;2023-01-25T06:51:35;100083.84;;;2.07;88.96
7760;BME280;3924;48.830;9.262;2023-01-25T06:54:02;100084.84;;;2.06;88.90
7760;BME280;3924;48.830;9.262;2023-01-25T06:56:32;100079.31;;;2.07;88.90
7760;BME280;3924;48.830;9.262;2023-01-25T06:58:58;100079.31;;;2.07;88.96
7760;BME280;3924;48.830;9.262;2023-01-25T07:01:25;100071.09;;;2.09;89.00
7760;BME280;3924;48.830;9.262;2023-01-25T07:03:57;100071.09;;;2.09;89.19
7760;BME280;3924;48.830;9.262;2023-01-25T07:06:25;100064.72;;;2.10;89.09
7760;BME280;3924;48.830;9.262;2023-01-25T07:09:01;100056.69;;;2.10;89.06
7760;BME280;3924;48.830;9.262;2023-01-25T07:11:28;100066.16;;;2.12;88.99
7760;BME280;3924;48.830;9.262;2023-01-25T07:13:54;100069.69;;;2.13;89.00
7760;BME280;3924;48.830;9.262;2023-01-25T07:16:20;100069.25;;;2.16;88.85
7760;BME280;3924;48.830;9.262;2023-01-25T07:18:47;100067.63;;;2.15;89.00
7760;BME280;3924;48.830;9.262;2023-01-25T07:21:16;100068.25;;;2.17;88.87
7760;BME280;3924;48.830;9.262;2023-01-25T07:23:43;100065.56;;;2.17;88.87
7760;BME280;3924;48.830;9.262;2023-01-25T07:26:19;100059.19;;;2.18;88.89
7760;BME280;3924;48.830;9.262;2023-01-25T07:28:47;100071.53;;;2.19;88.58
7760;BME280;3924;48.830;9.262;2023-01-25T07:31:14;100066.19;;;2.19;88.67
7760;BME280;3924;48.830;9.262;2023-01-25T07:33:42;100057.53;;;2.17;88.88
7760;BME280;3924;48.830;9.262;2023-01-25T07:36:09;100058.16;;;2.19;88.59
7760;BME280;3924;48.830;9.262;2023-01-25T07:38:36;100051.81;;;2.20;88.69
7760;BME280;3924;48.830;9.262;2023-01-25T07:41:04;100054.28;;;2.22;88.68
7760;BME280;3924;48.830;9.262;2023-01-25T07:43:30;100055.72;;;2.24;88.86
7760;BME280;3924;48.830;9.262;2023-01-25T07:46:06;100058.38;;;2.24;88.47
7760;BME280;3924;48.830;9.262;2023-01-25T07:48:37;100050.34;;;2.24;88.57
7760;BME280;3924;48.830;9.262;2023-01-25T07:51:06;100055.09;;;2.22;88.52
7760;BME280;3924;48.830;9.262;2023-01-25T07:53:54;100057.34;;;2.25;88.52
7760;BME280;3924;48.830;9.262;2023-01-25T07:56:23;100060.03;;;2.25;88.30
7760;BME280;3924;48.830;9.262;2023-01-25T07:58:55;100056.31;;;2.26;88.42
7760;BME280;3924;48.830;9.262;2023-01-25T08:01:23;100052.66;;;2.27;88.62
7760;BME280;3924;48.830;9.262;2023-01-25T08:03:50;100063.34;;;2.27;88.44
7760;BME280;3924;48.830;9.262;2023-01-25T08:06:22;100053.47;;;2.28;88.60
7760;BME280;3924;48.830;9.262;2023-01-25T08:08:53;100059.84;;;2.27;88.47
7760;BME280;3924;48.830;9.262;2023-01-25T08:11:23;100061.28;;;2.29;88.54
7760;BME280;3924;48.830;9.262;2023-01-25T08:13:51;100065.00;;;2.28;88.39
7760;BME280;3924;48.830;9.262;2023-01-25T08:16:20;100062.53;;;2.27;88.41
7760;BME280;3924;48.830;9.262;2023-01-25T08:18:53;100061.28;;;2.29;88.70
7760;BME280;3924;48.830;9.262;2023-01-25T08:21:20;100064.34;;;2.26;88.46
7760;BME280;3924;48.830;9.262;2023-01-25T08:23:49;100058.59;;;2.23;88.39
7760;BME280;3924;48.830;9.262;2023-01-25T08:26:16;100068.69;;;2.21;88.25
7760;BME280;3924;48.830;9.262;2023-01-25T08:28:43;100066.81;;;2.21;88.58
7760;BME280;3924;48.830;9.262;2023-01-25T08:31:12;100065.78;;;2.22;88.36
7760;BME280;3924;48.830;9.262;2023-01-25T08:33:39;100066.81;;;2.21;88.61
7760;BME280;3924;48.830;9.262;2023-01-25T08:36:06;100067.84;;;2.20;88.54
7760;BME280;3924;48.830;9.262;2023-01-25T08:38:35;100065.78;;;2.22;88.60
7760;BME280;3924;48.830;9.262;2023-01-25T08:41:09;100062.69;;;2.25;88.65
7760;BME280;3924;48.830;9.262;2023-01-25T08:43:37;100052.66;;;2.27;88.45
7760;BME280;3924;48.830;9.262;2023-01-25T08:46:04;100058.00;;;2.27;88.30
7760;BME280;3924;48.830;9.262;2023-01-25T08:48:31;100043.59;;;2.28;88.46
7760;BME280;3924;48.830;9.262;2023-01-25T08:50:58;100050.59;;;2.29;88.24
7760;BME280;3924;48.830;9.262;2023-01-25T08:53:29;100037.41;;;2.28;88.28
7760;BME280;3924;48.830;9.262;2023-01-25T08:56:11;100039.28;;;2.27;88.27
7760;BME280;3924;48.830;9.262;2023-01-25T08:58:40;100034.53;;;2.29;88.51
7760;BME280;3924;48.830;9.262;2023-01-25T09:01:12;100029.19;;;2.29;88.16
7760;BME280;3924;48.830;9.262;2023-01-25T09:03:42;100034.13;;;2.32;88.53
7760;BME280;3924;48.830;9.262;2023-01-25T09:06:10;100033.72;;;2.35;88.46
7760;BME280;3924;48.830;9.262;2023-01-25T09:08:42;100026.31;;;2.37;88.16
7760;BME280;3924;48.830;9.262;2023-01-25T09:11:12;100029.59;;;2.39;88.34
7760;BME280;3924;48.830;9.262;2023-01-25T09:13:38;100024.91;;;2.41;87.96
7760;BME280;3924;48.830;9.262;2023-01-25T09:16:14;100029.22;;;2.42;88.08
7760;BME280;3924;48.830;9.262;2023-01-25T09:18:41;100027.16;;;2.44;88.17
7760;BME280;3924;48.830;9.262;2023-01-25T09:21:13;100029.81;;;2.44;88.00
7760;BME280;3924;48.830;9.262;2023-01-25T09:23:40;100031.25;;;2.47;88.10
7760;BME280;3924;48.830;9.262;2023-01-25T09:26:29;100031.06;;;2.49;88.21
7760;BME280;3924;48.830;9.262;2023-01-25T09:28:57;100029.22;;;2.49;88.05
7760;BME280;3924;48.830;9.262;2023-01-25T09:31:24;100020.97;;;2.51;87.87
7760;BME280;3924;48.830;9.262;2023-01-25T09:33:52;100019.72;;;2.46;87.64
7760;BME280;3924;48.830;9.262;2023-01-25T09:36:19;100019.34;;;2.50;87.97
7760;BME280;3924;48.830;9.262;2023-01-25T09:38:46;100010.50;;;2.49;88.02
7760;BME280;3924;48.830;9.262;2023-01-25T09:46:55;100018.91;;;2.53;88.04
7760;BME280;3924;48.830;9.262;2023-01-25T09:55:25;100022.25;;;2.55;87.70
7760;BME280;3924;48.830;9.262;2023-01-25T09:57:53;100015.41;;;2.52;87.69
7760;BME280;3924;48.830;9.262;2023-01-25T10:00:27;100011.94;;;2.52;87.73
7760;BME280;3924;48.830;9.262;2023-01-25T10:03:20;100015.03;;;2.49;87.53
7760;BME280;3924;48.830;9.262;2023-01-25T10:05:50;100017.06;;;2.46;87.60
7760;BME280;3924;48.830;9.262;2023-01-25T10:10:47;100011.69;;;2.46;87.59
7760;BME280;3924;48.830;9.262;2023-01-25T10:13:18;100006.16;;;2.48;87.72
7760;BME280;3924;48.830;9.262;2023-01-25T10:15:53;100009.66;;;2.49;87.63
7760;BME280;3924;48.830;9.262;2023-01-25T10:18:32;100007.00;;;2.49;87.68
7760;BME280;3924;48.830;9.262;2023-01-25T10:21:10;100001.63;;;2.49;87.37
7760;BME280;3924;48.830;9.262;2023-01-25T10:24:01;100006.34;;;2.46;87.64
7760;BME280;3924;48.830;9.262;2023-01-25T10:26:36;99997.31;;;2.47;87.60
7760;BME280;3924;48.830;9.262;2023-01-25T10:29:11;99999.78;;;2.49;87.61
7760;BME280;3924;48.830;9.262;2023-01-25T10:31:49;99992.38;;;2.51;87.55
7760;BME280;3924;48.830;9.262;2023-01-25T10:34:20;99980.41;;;2.54;87.44
7760;BME280;3924;48.830;9.262;2023-01-25T10:37:00;99987.22;;;2.56;87.73
7760;BME280;3924;48.830;9.262;2023-01-25T10:39:31;99982.47;;;2.52;87.39
7760;BME280;3924;48.830;9.262;2023-01-25T10:42:08;99988.25;;;2.49;87.45
7760;BME280;3924;48.830;9.262;2023-01-25T10:44:37;99976.53;;;2.50;87.46
7760;BME280;3924;48.830;9.262;2023-01-25T10:47:28;99974.88;;;2.49;87.18
7760;BME280;3924;48.830;9.262;2023-01-25T10:49:57;99976.53;;;2.50;87.48
7760;BME280;3924;48.830;9.262;2023-01-25T10:52:26;99976.09;;;2.53;87.49
7760;BME280;3924;48.830;9.262;2023-01-25T10:55:16;99969.72;;;2.54;87.41
7760;BME280;3924;48.830;9.262;2023-01-25T10:57:50;99959.66;;;2.56;87.22
7760;BME280;3924;48.830;9.262;2023-01-25T11:00:37;99955.94;;;2.57;87.47
7760;BME280;3924;48.830;9.262;2023-01-25T11:03:05;99964.34;;;2.60;87.39
7760;BME280;3924;48.830;9.262;2023-01-25T11:05:55;99955.13;;;2.63;87.17
7760;BME280;3924;48.830;9.262;2023-01-25T11:08:31;99956.75;;;2.64;87.22
7760;BME280;3924;48.830;9.262;2023-01-25T11:10:59;99964.19;;;2.62;87.27
7760;BME280;3924;48.830;9.262;2023-01-25T11:13:39;99959.84;;;2.61;87.12
7760;BME280;3924;48.830;9.262;2023-01-25T11:18:51;99957.38;;;2.53;86.96
7760;BME280;3924;48.830;9.262;2023-01-25T11:21:23;99951.81;;;2.54;87.20
7760;BME280;3924;48.830;9.262;2023-01-25T11:26:33;99946.47;;;2.61;87.06
7760;BME280;3924;48.830;9.262;2023-01-25T11:29:21;99934.09;;;2.60;87.13
7760;BME280;3924;48.830;9.262;2023-01-25T11:31:53;99930.59;;;2.59;87.22
7760;BME280;3924;48.830;9.262;2023-01-25T11:34:24;99932.88;;;2.56;87.03
7760;BME280;3924;48.830;9.262;2023-01-25T11:39:58;99920.72;;;2.60;87.02
7760;BME280;3924;48.830;9.262;2023-01-25T11:45:46;99905.69;;;2.52;86.82
7760;BME280;3924;48.830;9.262;2023-01-25T12:05:23;99871.94;;;2.51;86.96
7760;BME280;3924;48.830;9.262;2023-01-25T12:08:00;99865.75;;;2.51;87.05
7760;BME280;3924;48.830;9.262;2023-01-25T12:10:39;99863.06;;;2.51;86.92
7760;BME280;3924;48.830;9.262;2023-01-25T12:13:23;99856.47;;;2.46;86.80
7760;BME280;3924;48.830;9.262;2023-01-25T12:16:06;99847.63;;;2.46;86.96
7760;BME280;3924;48.830;9.262;2023-01-25T12:19:15;99841.06;;;2.49;87.07
7760;BME280;3924;48.830;9.262;2023-01-25T12:27:42;99828.09;;;2.45;87.00
7760;BME280;3924;48.830;9.262;2023-01-25T12:30:39;99810.16;;;2.46;86.89
7760;BME280;3924;48.830;9.262;2023-01-25T12:33:13;99803.59;;;2.49;86.83
7760;BME280;3924;48.830;9.262;2023-01-25T12:36:01;99800.28;;;2.46;86.70
7760;BME280;3924;48.830;9.262;2023-01-25T12:38:47;99796.19;;;2.44;86.57
7760;BME280;3924;48.830;9.262;2023-01-25T12:41:45;99790.00;;;2.43;86.87
7760;BME280;3924;48.830;9.262;2023-01-25T12:44:33;99788.38;;;2.42;86.73
7760;BME280;3924;48.830;9.262;2023-01-25T12:47:22;99786.72;;;2.41;86.63
7760;BME280;3924;48.830;9.262;2023-01-25T12:53:00;99773.75;;;2.38;86.69
7760;BME280;3924;48.830;9.262;2023-01-25T12:55:29;99776.84;;;2.35;86.68
7760;BME280;3924;48.830;9.262;2023-01-25T13:04:50;99747.66;;;2.34;86.75
7760;BME280;3924;48.830;9.262;2023-01-25T13:07:41;99753.81;;;2.34;86.79
7760;BME280;3924;48.830;9.262;2023-01-25T13:10:24;99748.47;;;2.34;86.71
7760;BME280;3924;48.830;9.262;2023-01-25T13:13:19;99748.47;;;2.34;86.85
7760;BME280;3924;48.830;9.262;2023-01-25T13:17:28;99741.03;;;2.36;86.50
7760;BME280;3924;48.830;9.262;2023-01-25T13:19:43;99736.50;;;2.37;86.55
7760;BME280;3924;48.830;9.262;2023-01-25T13:22:57;99732.81;;;2.31;86.64
7760;BME280;3924;48.830;9.262;2023-01-25T13:33:09;99727.06;;;2.34;86.46
7760;BME280;3924;48.830;9.262;2023-01-25T13:36:36;99730.75;;;2.33;86.51
7760;BME280;3924;48.830;9.262;2023-01-25T13:44:55;99713.47;;;2.29;86.64
7760;BME280;3924;48.830;9.262;2023-01-25T13:47:32;99707.09;;;2.30;86.79
7760;BME280;3924;48.830;9.262;2023-01-25T13:50:33;99711.00;;;2.34;86.46
7760;BME280;3924;48.830;9.262;2023-01-25T13:56:33;99701.13;;;2.35;86.38
7760;BME280;3924;48.830;9.262;2023-01-25T13:59:34;99694.53;;;2.31;86.53
7760;BME280;3924;48.830;9.262;2023-01-25T14:02:02;99697.84;;;2.26;86.61
7760;BME280;3924;48.830;9.262;2023-01-25T14:04:29;99693.53;;;2.25;86.54
7760;BME280;3924;48.830;9.262;2023-01-25T14:06:58;99691.06;;;2.24;86.49
7760;BME280;3924;48.830;9.262;2023-01-25T14:09:25;99684.47;;;2.26;86.64
7760;BME280;3924;48.830;9.262;2023-01-25T14:11:59;99692.09;;;2.23;86.63
7760;BME280;3924;48.830;9.262;2023-01-25T14:14:31;99700.34;;;2.21;86.57
7760;BME280;3924;48.830;9.262;2023-01-25T14:17:24;99692.50;;;2.19;86.71
7760;BME280;3924;48.830;9.262;2023-01-25T14:19:53;99697.66;;;2.21;86.52
7760;BME280;3924;48.830;9.262;2023-01-25T14:22:24;99698.69;;;2.20;86.35
7760;BME280;3924;48.830;9.262;2023-01-25T14:25:02;99702.59;;;2.17;86.33
7760;BME280;3924;48.830;9.262;2023-01-25T14:27:29;99695.81;;;2.15;86.29
7760;BME280;3924;48.830;9.262;2023-01-25T14:29:56;99692.13;;;2.16;86.64
7760;BME280;3924;48.830;9.262;2023-01-25T14:32:24;99692.13;;;2.16;86.49
7760;BME280;3924;48.830;9.262;2023-01-25T14:34:51;99692.94;;;2.16;86.62
7760;BME280;3924;48.830;9.262;2023-01-25T14:37:19;99688.41;;;2.17;86.75
7760;BME280;3924;48.830;9.262;2023-01-25T14:39:48;99692.50;;;2.19;86.42
7760;BME280;3924;48.830;9.262;2023-01-25T14:42:16;99687.16;;;2.19;86.49
7760;BME280;3924;48.830;9.262;2023-01-25T14:44:44;99678.75;;;2.16;86.28
7760;BME280;3924;48.830;9.262;2023-01-25T14:47:25;99685.34;;;2.13;86.22
7760;BME280;3924;48.830;9.262;2023-01-25T14:49:54;99684.53;;;2.13;86.52
7760;BME280;3924;48.830;9.262;2023-01-25T14:52:22;99677.31;;;2.13;86.64
7760;BME280;3924;48.830;9.262;2023-01-25T14:54:55;99670.53;;;2.04;86.45
7760;BME280;3924;48.830;9.262;2023-01-25T14:57:37;99660.06;;;2.03;86.65
7760;BME280;3924;48.830;9.262;2023-01-25T15:00:25;99657.81;;;2.00;86.38
7760;BME280;3924;48.830;9.262;2023-01-25T15:03:03;99658.81;;;1.99;86.67
7760;BME280;3924;48.830;9.262;2023-01-25T15:05:33;99659.66;;;1.99;86.35
7760;BME280;3924;48.830;9.262;2023-01-25T15:10:37;99654.69;;;2.03;86.53
7760;BME280;3924;48.830;9.262;2023-01-25T15:13:19;99660.47;;;2.06;86.39
7760;BME280;3924;48.830;9.262;2023-01-25T15:15:59;99651.59;;;2.06;86.42
7760;BME280;3924;48.830;9.262;2023-01-25T15:18:48;99647.09;;;2.06;86.56